sensor_id;sensor_type;location;lat;lon;timestamp;pressure;altitude;pressure_sealevel;temperature;humidity
49341;BME280;35209;51.050;13.678;2023-04-15T00:02:20;98779.38;;;6.61;100.00
49341;BME280;35209;51.050;13.678;2023-04-15T00:07:22;98776.53;;;6.67;100.00
49341;BME280;35209;51.050;13.678;2023-04-15T00:12:24;98775.59;;;6.68;100.00
49341;BME280;35209;51.050;13.678;2023-04-15T00:17:26;98776.44;;;6.68;100.00
49341;BME280;35209;51.050;13.678;2023-04-15T00:22:28;98770.44;;;6.66;100.00
49341;BME280;35209;51.050;13.678;2023-04-15T00:27:30;98761.09;;;6.61;100.00
49341;BME280;35209;51.050;13.678;2023-04-15T00:32:32;98762.47;;;6.46;100.00
49341;BME280;35209;51.050;13.678;2023-04-15T00:37:33;98761.84;;;6.39;100.00
49341;BME280;35209;51.050;13.678;2023-04-15T00:42:35;98761.13;;;6.59;100.00
49341;BME280;35209;51.050;13.678;2023-04-15T00:47:40;98754.13;;;6.60;100.00
49341;BME280;35209;51.050;13.678;2023-04-15T00:52:42;98758.41;;;6.62;100.00
49341;BME280;35209;51.050;13.678;2023-04-15T00:57:43;98752.09;;;6.44;100.00
49341;BME280;35209;51.050;13.678;2023-04-15T01:02:46;98751.75;;;6.53;100.00
49341;BME280;35209;51.050;13.678;2023-04-15T01:07:48;98740.69;;;6.47;100.00
49341;BME280;35209;51.050;13.678;2023-04-15T01:12:49;98741.66;;;6.68;100.00
49341;BME280;35209;51.050;13.678;2023-04-15T01:17:51;98741.78;;;6.65;100.00
49341;BME280;35209;51.050;13.678;2023-04-15T01:22:53;98739.19;;;6.65;100.00
49341;BME280;35209;51.050;13.678;2023-04-15T01:27:55;98732.47;;;6.57;100.00
49341;BME280;35209;51.050;13.678;2023-04-15T01:32:57;98728.94;;;6.58;100.00
49341;BME280;35209;51.050;13.678;2023-04-15T01:38:05;98726.25;;;6.37;100.00
49341;BME280;35209;51.050;13.678;2023-04-15T01:43:07;98723.72;;;6.58;100.00
49341;BME280;35209;51.050;13.678;2023-04-15T01:48:09;98723.63;;;6.62;100.00
49341;BME280;35209;51.050;13.678;2023-04-15T01:53:11;98718.91;;;6.48;100.00
49341;BME280;35209;51.050;13.678;2023-04-15T01:58:14;98716.47;;;6.43;100.00
49341;BME280;35209;51.050;13.678;2023-04-15T02:03:17;98710.81;;;6.55;100.00
49341;BME280;35209;51.050;13.678;2023-04-15T02:08:19;98705.63;;;6.54;100.00
49341;BME280;35209;51.050;13.678;2023-04-15T02:13:21;98694.56;;;6.47;100.00
49341;BME280;35209;51.050;13.678;2023-04-15T02:18:23;98696.25;;;6.48;100.00
49341;BME280;35209;51.050;13.678;2023-04-15T02:23:25;98701.25;;;6.54;100.00
49341;BME280;35209;51.050;13.678;2023-04-15T02:28:26;98697.78;;;6.54;100.00
49341;BME280;35209;51.050;13.678;2023-04-15T02:33:28;98700.16;;;6.83;100.00
49341;BME280;35209;51.050;13.678;2023-04-15T02:38:30;98685.22;;;6.64;100.00
49341;BME280;35209;51.050;13.678;2023-04-15T02:43:32;98683.81;;;6.55;100.00
49341;BME280;35209;51.050;13.678;2023-04-15T02:48:34;98686.50;;;6.53;100.00
49341;BME280;35209;51.050;13.678;2023-04-15T02:53:37;98697.16;;;6.47;100.00
49341;BME280;35209;51.050;13.678;2023-04-15T02:58:39;98704.25;;;6.44;100.00
49341;BME280;35209;51.050;13.678;2023-04-15T03:03:41;98688.59;;;6.44;100.00
49341;BME280;35209;51.050;13.678;2023-04-15T03:08:43;98686.78;;;6.69;100.00
49341;BME280;35209;51.050;13.678;2023-04-15T03:13:46;98683.47;;;6.88;100.00
49341;BME280;35209;51.050;13.678;2023-04-15T03:18:58;98684.50;;;6.83;100.00
49341;BME280;35209;51.050;13.678;2023-04-15T03:24:02;98674.63;;;6.68;100.00
49341;BME280;35209;51.050;13.678;2023-04-15T03:29:04;98677.75;;;6.54;100.00
49341;BME280;35209;51.050;13.678;2023-04-15T03:34:07;98682.78;;;6.59;100.00
49341;BME280;35209;51.050;13.678;2023-04-15T03:39:09;98670.97;;;6.72;100.00
49341;BME280;35209;51.050;13.678;2023-04-15T03:44:11;98669.91;;;6.78;100.00
49341;BME280;35209;51.050;13.678;2023-04-15T03:49:13;98658.56;;;6.79;100.00
49341;BME280;35209;51.050;13.678;2023-04-15T03:54:15;98650.44;;;6.63;100.00
49341;BME280;35209;51.050;13.678;2023-04-15T03:59:18;98654.34;;;6.75;100.00
49341;BME280;35209;51.050;13.678;2023-04-15T04:04:19;98648.50;;;6.68;100.00
49341;BME280;35209;51.050;13.678;2023-04-15T04:09:21;98654.63;;;6.67;100.00
49341;BME280;35209;51.050;13.678;2023-04-15T04:14:23;98649.69;;;6.60;100.00
49341;BME280;35209;51.050;13.678;2023-04-15T04:19:29;98672.53;;;6.54;100.00
49341;BME280;35209;51.050;13.678;2023-04-15T04:24:31;98658.50;;;6.57;100.00
49341;BME280;35209;51.050;13.678;2023-04-15T04:29:33;98653.50;;;6.74;100.00
49341;BME280;35209;51.050;13.678;2023-04-15T04:34:35;98658.59;;;6.55;100.00
49341;BME280;35209;51.050;13.678;2023-04-15T04:39:36;98659.09;;;6.65;100.00
49341;BME280;35209;51.050;13.678;2023-04-15T04:44:38;98672.19;;;6.64;100.00
49341;BME280;35209;51.050;13.678;2023-04-15T04:49:40;98665.31;;;6.61;100.00
49341;BME280;35209;51.050;13.678;2023-04-15T04:54:51;98678.41;;;6.60;100.00
49341;BME280;35209;51.050;13.678;2023-04-15T04:59:53;98679.28;;;6.83;100.00
49341;BME280;35209;51.050;13.678;2023-04-15T05:04:55;98684.31;;;6.88;100.00
49341;BME280;35209;51.050;13.678;2023-04-15T05:09:57;98690.47;;;6.87;100.00
49341;BME280;35209;51.050;13.678;2023-04-15T05:14:58;98686.88;;;6.90;100.00
49341;BME280;35209;51.050;13.678;2023-04-15T05:20:01;98685.91;;;6.92;100.00
49341;BME280;35209;51.050;13.678;2023-04-15T05:25:03;98691.13;;;6.92;100.00
49341;BME280;35209;51.050;13.678;2023-04-15T05:30:05;98694.34;;;6.99;100.00
49341;BME280;35209;51.050;13.678;2023-04-15T05:35:07;98695.63;;;6.89;100.00
49341;BME280;35209;51.050;13.678;2023-04-15T05:40:09;98694.13;;;7.05;100.00
49341;BME280;35209;51.050;13.678;2023-04-15T05:45:11;98698.31;;;7.09;100.00
49341;BME280;35209;51.050;13.678;2023-04-15T05:50:14;98696.66;;;7.06;100.00
49341;BME280;35209;51.050;13.678;2023-04-15T05:55:16;98707.13;;;7.06;100.00
49341;BME280;35209;51.050;13.678;2023-04-15T06:00:18;98719.34;;;7.06;100.00
49341;BME280;35209;51.050;13.678;2023-04-15T06:05:20;98724.19;;;6.93;100.00
49341;BME280;35209;51.050;13.678;2023-04-15T06:10:22;98720.81;;;7.13;100.00
49341;BME280;35209;51.050;13.678;2023-04-15T06:15:23;98726.22;;;7.08;100.00
49341;BME280;35209;51.050;13.678;2023-04-15T06:20:25;98728.31;;;6.99;100.00
49341;BME280;35209;51.050;13.678;2023-04-15T06:25:27;98736.88;;;7.02;100.00
49341;BME280;35209;51.050;13.678;2023-04-15T06:30:28;98731.56;;;7.05;100.00
49341;BME280;35209;51.050;13.678;2023-04-15T06:35:30;98732.50;;;7.03;100.00
49341;BME280;35209;51.050;13.678;2023-04-15T06:40:32;98737.56;;;7.07;100.00
49341;BME280;35209;51.050;13.678;2023-04-15T06:45:34;98748.53;;;7.17;100.00
49341;BME280;35209;51.050;13.678;2023-04-15T06:50:35;98745.72;;;7.00;100.00
49341;BME280;35209;51.050;13.678;2023-04-15T06:55:38;98754.97;;;7.08;100.00
49341;BME280;35209;51.050;13.678;2023-04-15T07:00:40;98753.75;;;7.17;100.00
49341;BME280;35209;51.050;13.678;2023-04-15T07:05:42;98763.72;;;7.29;100.00
49341;BME280;35209;51.050;13.678;2023-04-15T07:10:45;98761.00;;;7.32;100.00
49341;BME280;35209;51.050;13.678;2023-04-15T07:15:47;98759.16;;;7.34;100.00
49341;BME280;35209;51.050;13.678;2023-04-15T07:20:49;98768.53;;;7.40;100.00
49341;BME280;35209;51.050;13.678;2023-04-15T07:25:50;98776.78;;;7.29;100.00
49341;BME280;35209;51.050;13.678;2023-04-15T07:30:52;98784.09;;;7.43;100.00
49341;BME280;35209;51.050;13.678;2023-04-15T07:35:54;98777.53;;;7.33;100.00
49341;BME280;35209;51.050;13.678;2023-04-15T07:40:56;98777.63;;;7.53;100.00
49341;BME280;35209;51.050;13.678;2023-04-15T07:45:58;98795.66;;;7.59;100.00
49341;BME280;35209;51.050;13.678;2023-04-15T07:51:00;98797.91;;;7.69;100.00
49341;BME280;35209;51.050;13.678;2023-04-15T07:56:03;98793.03;;;7.81;100.00
49341;BME280;35209;51.050;13.678;2023-04-15T08:01:05;98799.19;;;8.02;100.00
49341;BME280;35209;51.050;13.678;2023-04-15T08:06:07;98804.41;;;8.23;100.00
49341;BME280;35209;51.050;13.678;2023-04-15T08:11:08;98814.38;;;8.35;100.00
49341;BME280;35209;51.050;13.678;2023-04-15T08:16:19;98815.84;;;8.63;100.00
49341;BME280;35209;51.050;13.678;2023-04-15T08:21:21;98820.31;;;8.81;100.00
49341;BME280;35209;51.050;13.678;2023-04-15T08:26:23;98827.25;;;8.82;100.00
49341;BME280;35209;51.050;13.678;2023-04-15T08:31:25;98830.63;;;9.04;100.00
49341;BME280;35209;51.050;13.678;2023-04-15T08:36:28;98832.97;;;9.29;100.00
49341;BME280;35209;51.050;13.678;2023-04-15T08:41:46;98834.97;;;9.24;100.00
49341;BME280;35209;51.050;13.678;2023-04-15T08:46:48;98827.34;;;9.39;100.00
49341;BME280;35209;51.050;13.678;2023-04-15T08:51:50;98849.44;;;9.52;100.00
49341;BME280;35209;51.050;13.678;2023-04-15T08:56:52;98847.13;;;9.82;100.00
49341;BME280;35209;51.050;13.678;2023-04-15T09:01:56;98855.72;;;9.85;100.00
49341;BME280;35209;51.050;13.678;2023-04-15T09:06:58;98852.06;;;10.07;100.00
49341;BME280;35209;51.050;13.678;2023-04-15T09:12:00;98850.69;;;9.81;100.00
49341;BME280;35209;51.050;13.678;2023-04-15T09:17:03;98858.47;;;10.01;100.00
49341;BME280;35209;51.050;13.678;2023-04-15T09:22:05;98867.63;;;9.74;100.00
49341;BME280;35209;51.050;13.678;2023-04-15T09:27:07;98855.38;;;9.93;100.00
49341;BME280;35209;51.050;13.678;2023-04-15T09:32:13;98863.88;;;10.34;99.20
49341;BME280;35209;51.050;13.678;2023-04-15T09:37:15;98872.13;;;10.27;100.00
49341;BME280;35209;51.050;13.678;2023-04-15T09:42:32;98876.22;;;9.77;100.00
49341;BME280;35209;51.050;13.678;2023-04-15T09:47:35;98891.91;;;9.79;100.00
49341;BME280;35209;51.050;13.678;2023-04-15T09:52:41;98897.78;;;9.46;99.64
49341;BME280;35209;51.050;13.678;2023-04-15T09:57:47;98905.22;;;9.16;100.00
49341;BME280;35209;51.050;13.678;2023-04-15T10:02:49;98912.84;;;9.22;100.00
49341;BME280;35209;51.050;13.678;2023-04-15T10:07:53;98903.41;;;9.18;100.00
49341;BME280;35209;51.050;13.678;2023-04-15T10:12:55;98909.63;;;9.16;100.00
49341;BME280;35209;51.050;13.678;2023-04-15T10:18:02;98918.53;;;9.12;100.00
49341;BME280;35209;51.050;13.678;2023-04-15T10:23:07;98927.28;;;9.12;100.00
49341;BME280;35209;51.050;13.678;2023-04-15T10:28:13;98927.63;;;9.04;100.00
49341;BME280;35209;51.050;13.678;2023-04-15T10:33:18;98935.78;;;8.97;100.00
49341;BME280;35209;51.050;13.678;2023-04-15T10:38:43;98943.06;;;8.70;100.00
49341;BME280;35209;51.050;13.678;2023-04-15T10:43:53;98941.34;;;8.89;99.99
49341;BME280;35209;51.050;13.678;2023-04-15T10:48:56;98940.97;;;8.78;100.00
49341;BME280;35209;51.050;13.678;2023-04-15T10:53:59;98949.28;;;8.88;100.00
49341;BME280;35209;51.050;13.678;2023-04-15T10:59:04;98945.03;;;9.05;100.00
49341;BME280;35209;51.050;13.678;2023-04-15T11:04:05;98944.97;;;9.27;95.67
49341;BME280;35209;51.050;13.678;2023-04-15T11:09:30;98950.66;;;9.37;97.71
49341;BME280;35209;51.050;13.678;2023-04-15T11:14:38;98965.28;;;9.22;98.17
49341;BME280;35209;51.050;13.678;2023-04-15T11:19:40;98966.81;;;9.47;93.58
49341;BME280;35209;51.050;13.678;2023-04-15T11:24:48;98969.72;;;9.20;95.56
49341;BME280;35209;51.050;13.678;2023-04-15T11:29:51;98967.72;;;9.27;93.90
49341;BME280;35209;51.050;13.678;2023-04-15T11:34:53;98979.44;;;9.18;96.65
49341;BME280;35209;51.050;13.678;2023-04-15T11:39:55;98984.53;;;9.42;95.04
49341;BME280;35209;51.050;13.678;2023-04-15T11:45:10;98998.69;;;9.58;95.47
49341;BME280;35209;51.050;13.678;2023-04-15T11:50:17;98997.22;;;9.71;93.86
49341;BME280;35209;51.050;13.678;2023-04-15T11:55:19;99003.03;;;9.78;89.34
49341;BME280;35209;51.050;13.678;2023-04-15T12:00:21;98998.16;;;9.70;90.22
49341;BME280;35209;51.050;13.678;2023-04-15T12:05:23;99004.97;;;9.74;87.64
49341;BME280;35209;51.050;13.678;2023-04-15T12:10:24;99013.50;;;9.59;90.18
49341;BME280;35209;51.050;13.678;2023-04-15T12:15:26;99029.13;;;9.62;89.97
49341;BME280;35209;51.050;13.678;2023-04-15T12:20:29;99034.38;;;9.42;92.39
49341;BME280;35209;51.050;13.678;2023-04-15T12:25:33;99039.19;;;9.52;90.98
49341;BME280;35209;51.050;13.678;2023-04-15T12:30:36;99042.16;;;9.64;90.93
49341;BME280;35209;51.050;13.678;2023-04-15T12:35:48;99047.91;;;9.92;85.30
49341;BME280;35209;51.050;13.678;2023-04-15T12:40:50;99047.38;;;9.65;86.06
49341;BME280;35209;51.050;13.678;2023-04-15T12:45:52;99062.50;;;9.58;88.95
49341;BME280;35209;51.050;13.678;2023-04-15T12:50:54;99066.25;;;9.53;89.23
49341;BME280;35209;51.050;13.678;2023-04-15T12:55:55;99070.38;;;9.58;86.16
49341;BME280;35209;51.050;13.678;2023-04-15T13:00:57;99073.63;;;9.65;86.88
49341;BME280;35209;51.050;13.678;2023-04-15T13:05:59;99075.63;;;9.79;84.75
49341;BME280;35209;51.050;13.678;2023-04-15T13:11:02;99085.28;;;9.78;84.12
49341;BME280;35209;51.050;13.678;2023-04-15T13:16:05;99090.31;;;9.83;82.83
49341;BME280;35209;51.050;13.678;2023-04-15T13:21:07;99088.53;;;9.43;86.09
49341;BME280;35209;51.050;13.678;2023-04-15T13:26:11;99099.16;;;9.60;86.04
49341;BME280;35209;51.050;13.678;2023-04-15T13:31:13;99100.88;;;9.81;83.73
49341;BME280;35209;51.050;13.678;2023-04-15T13:36:15;99102.31;;;9.68;85.89
49341;BME280;35209;51.050;13.678;2023-04-15T13:41:17;99103.09;;;9.91;84.62
49341;BME280;35209;51.050;13.678;2023-04-15T13:46:20;99104.34;;;10.02;86.41
49341;BME280;35209;51.050;13.678;2023-04-15T13:51:22;99115.72;;;10.22;81.44
49341;BME280;35209;51.050;13.678;2023-04-15T13:56:25;99123.06;;;10.14;83.30
49341;BME280;35209;51.050;13.678;2023-04-15T14:01:27;99129.63;;;9.84;87.82
49341;BME280;35209;51.050;13.678;2023-04-15T14:06:29;99126.72;;;10.11;83.68
49341;BME280;35209;51.050;13.678;2023-04-15T14:11:32;99130.38;;;10.07;85.85
49341;BME280;35209;51.050;13.678;2023-04-15T14:16:35;99135.16;;;10.18;83.03
49341;BME280;35209;51.050;13.678;2023-04-15T14:21:37;99137.78;;;10.18;83.43
49341;BME280;35209;51.050;13.678;2023-04-15T14:26:39;99154.41;;;9.98;87.10
49341;BME280;35209;51.050;13.678;2023-04-15T14:31:41;99156.16;;;10.18;85.93
49341;BME280;35209;51.050;13.678;2023-04-15T14:37:05;99164.31;;;9.91;84.22
49341;BME280;35209;51.050;13.678;2023-04-15T14:42:07;99169.00;;;9.84;86.47
49341;BME280;35209;51.050;13.678;2023-04-15T14:47:09;99167.75;;;9.93;86.45
49341;BME280;35209;51.050;13.678;2023-04-15T14:52:11;99169.56;;;10.11;86.69
49341;BME280;35209;51.050;13.678;2023-04-15T14:57:13;99180.75;;;10.37;86.09
49341;BME280;35209;51.050;13.678;2023-04-15T15:02:15;99186.72;;;10.97;82.41
49341;BME280;35209;51.050;13.678;2023-04-15T15:07:38;99193.78;;;10.78;83.05
49341;BME280;35209;51.050;13.678;2023-04-15T15:12:41;99197.13;;;10.63;82.14
49341;BME280;35209;51.050;13.678;2023-04-15T15:17:43;99203.09;;;10.85;80.76
49341;BME280;35209;51.050;13.678;2023-04-15T15:22:45;99208.28;;;10.68;80.63
49341;BME280;35209;51.050;13.678;2023-04-15T15:27:48;99220.16;;;10.95;78.88
49341;BME280;35209;51.050;13.678;2023-04-15T15:32:50;99226.25;;;10.77;81.56
49341;BME280;35209;51.050;13.678;2023-04-15T15:37:52;99234.44;;;10.90;79.89
49341;BME280;35209;51.050;13.678;2023-04-15T15:42:55;99238.69;;;10.73;81.71
49341;BME280;35209;51.050;13.678;2023-04-15T15:47:57;99244.56;;;10.59;83.84
49341;BME280;35209;51.050;13.678;2023-04-15T15:53:00;99248.16;;;10.57;82.94
49341;BME280;35209;51.050;13.678;2023-04-15T15:58:02;99253.06;;;10.85;79.80
49341;BME280;35209;51.050;13.678;2023-04-15T16:03:04;99250.75;;;10.77;80.92
49341;BME280;35209;51.050;13.678;2023-04-15T16:08:08;99259.88;;;10.50;82.39
49341;BME280;35209;51.050;13.678;2023-04-15T16:13:10;99255.59;;;10.27;83.76
49341;BME280;35209;51.050;13.678;2023-04-15T16:18:12;99265.34;;;10.25;85.23
49341;BME280;35209;51.050;13.678;2023-04-15T16:23:17;99267.19;;;10.21;84.12
49341;BME280;35209;51.050;13.678;2023-04-15T16:28:20;99274.06;;;10.25;85.78
49341;BME280;35209;51.050;13.678;2023-04-15T16:33:27;99283.31;;;10.34;84.99
49341;BME280;35209;51.050;13.678;2023-04-15T16:38:30;99279.53;;;10.41;82.77
49341;BME280;35209;51.050;13.678;2023-04-15T16:43:32;99289.88;;;10.44;82.91
49341;BME280;35209;51.050;13.678;2023-04-15T16:48:34;99290.81;;;10.43;83.72
49341;BME280;35209;51.050;13.678;2023-04-15T16:53:35;99301.50;;;10.18;85.48
49341;BME280;35209;51.050;13.678;2023-04-15T16:58:38;99314.94;;;10.10;85.82
49341;BME280;35209;51.050;13.678;2023-04-15T17:03:40;99321.09;;;10.09;86.97
49341;BME280;35209;51.050;13.678;2023-04-15T17:08:43;99326.31;;;9.89;89.89
49341;BME280;35209;51.050;13.678;2023-04-15T17:13:45;99327.63;;;9.77;92.23
49341;BME280;35209;51.050;13.678;2023-04-15T17:18:48;99322.47;;;9.76;92.92
49341;BME280;35209;51.050;13.678;2023-04-15T17:23:51;99321.66;;;9.74;93.60
49341;BME280;35209;51.050;13.678;2023-04-15T17:28:55;99340.16;;;9.71;93.57
49341;BME280;35209;51.050;13.678;2023-04-15T17:33:57;99349.06;;;9.67;94.13
49341;BME280;35209;51.050;13.678;2023-04-15T17:39:10;99345.63;;;9.65;94.76
49341;BME280;35209;51.050;13.678;2023-04-15T17:44:12;99359.28;;;9.74;94.44
49341;BME280;35209;51.050;13.678;2023-04-15T17:49:13;99363.91;;;9.44;98.85
49341;BME280;35209;51.050;13.678;2023-04-15T17:54:15;99373.28;;;9.28;99.91
49341;BME280;35209;51.050;13.678;2023-04-15T17:59:17;99383.19;;;9.20;100.00
49341;BME280;35209;51.050;13.678;2023-04-15T18:04:20;99382.72;;;9.08;100.00
49341;BME280;35209;51.050;13.678;2023-04-15T18:09:27;99394.06;;;9.09;100.00
49341;BME280;35209;51.050;13.678;2023-04-15T18:14:29;99404.50;;;9.10;100.00
49341;BME280;35209;51.050;13.678;2023-04-15T18:19:35;99410.81;;;9.05;100.00
49341;BME280;35209;51.050;13.678;2023-04-15T18:24:37;99415.53;;;8.95;100.00
49341;BME280;35209;51.050;13.678;2023-04-15T18:29:39;99423.75;;;9.09;100.00
49341;BME280;35209;51.050;13.678;2023-04-15T18:34:41;99425.47;;;9.10;100.00
49341;BME280;35209;51.050;13.678;2023-04-15T18:39:43;99439.50;;;9.09;100.00
49341;BME280;35209;51.050;13.678;2023-04-15T18:44:45;99448.34;;;8.80;100.00
49341;BME280;35209;51.050;13.678;2023-04-15T18:49:46;99443.78;;;9.12;100.00
49341;BME280;35209;51.050;13.678;2023-04-15T18:54:48;99444.47;;;9.17;100.00
49341;BME280;35209;51.050;13.678;2023-04-15T18:59:50;99444.78;;;8.83;100.00
49341;BME280;35209;51.050;13.678;2023-04-15T19:04:52;99462.59;;;8.98;100.00
49341;BME280;35209;51.050;13.678;2023-04-15T19:10:01;99466.84;;;8.76;100.00
49341;BME280;35209;51.050;13.678;2023-04-15T19:15:03;99477.47;;;8.45;100.00
49341;BME280;35209;51.050;13.678;2023-04-15T19:20:05;99484.72;;;8.37;100.00
49341;BME280;35209;51.050;13.678;2023-04-15T19:25:08;99481.31;;;8.61;100.00
49341;BME280;35209;51.050;13.678;2023-04-15T19:30:09;99486.00;;;8.78;100.00
49341;BME280;35209;51.050;13.678;2023-04-15T19:35:11;99497.84;;;8.63;100.00
49341;BME280;35209;51.050;13.678;2023-04-15T19:40:13;99492.44;;;8.41;100.00
49341;BME280;35209;51.050;13.678;2023-04-15T19:45:15;99500.16;;;8.46;100.00
49341;BME280;35209;51.050;13.678;2023-04-15T19:50:16;99498.25;;;8.51;100.00
49341;BME280;35209;51.050;13.678;2023-04-15T19:55:19;99507.16;;;8.72;100.00
49341;BME280;35209;51.050;13.678;2023-04-15T20:00:21;99510.13;;;8.61;100.00
49341;BME280;35209;51.050;13.678;2023-04-15T20:05:23;99519.00;;;8.57;100.00
49341;BME280;35209;51.050;13.678;2023-04-15T20:10:25;99519.19;;;8.51;100.00
49341;BME280;35209;51.050;13.678;2023-04-15T20:15:27;99525.53;;;8.44;100.00
49341;BME280;35209;51.050;13.678;2023-04-15T20:20:29;99528.69;;;8.25;100.00
49341;BME280;35209;51.050;13.678;2023-04-15T20:25:31;99538.09;;;8.03;100.00
49341;BME280;35209;51.050;13.678;2023-04-15T20:30:33;99550.28;;;7.73;100.00
49341;BME280;35209;51.050;13.678;2023-04-15T20:35:56;99553.75;;;7.73;100.00
49341;BME280;35209;51.050;13.678;2023-04-15T20:40:58;99557.72;;;7.87;100.00
49341;BME280;35209;51.050;13.678;2023-04-15T20:46:00;99566.28;;;7.62;100.00
49341;BME280;35209;51.050;13.678;2023-04-15T20:51:18;99556.41;;;7.72;100.00
49341;BME280;35209;51.050;13.678;2023-04-15T20:56:23;99572.38;;;7.63;100.00
49341;BME280;35209;51.050;13.678;2023-04-15T21:01:24;99570.03;;;7.52;100.00
49341;BME280;35209;51.050;13.678;2023-04-15T21:06:26;99574.09;;;7.31;100.00
49341;BME280;35209;51.050;13.678;2023-04-15T21:11:28;99573.31;;;7.26;100.00
49341;BME280;35209;51.050;13.678;2023-04-15T21:16:37;99582.91;;;7.27;100.00
49341;BME280;35209;51.050;13.678;2023-04-15T21:21:39;99599.81;;;7.46;100.00
49341;BME280;35209;51.050;13.678;2023-04-15T21:26:41;99602.38;;;7.48;100.00
49341;BME280;35209;51.050;13.678;2023-04-15T21:31:42;99604.72;;;7.58;100.00
49341;BME280;35209;51.050;13.678;2023-04-15T21:36:59;99607.63;;;7.48;100.00
49341;BME280;35209;51.050;13.678;2023-04-15T21:42:01;99605.94;;;7.45;100.00
49341;BME280;35209;51.050;13.678;2023-04-15T21:47:03;99616.66;;;7.36;100.00
49341;BME280;35209;51.050;13.678;2023-04-15T21:52:05;99621.38;;;7.22;100.00
49341;BME280;35209;51.050;13.678;2023-04-15T21:57:07;99618.94;;;7.14;100.00
49341;BME280;35209;51.050;13.678;2023-04-15T22:02:08;99625.81;;;7.18;100.00
49341;BME280;35209;51.050;13.678;2023-04-15T22:07:11;99631.78;;;7.23;100.00
49341;BME280;35209;51.050;13.678;2023-04-15T22:12:12;99639.47;;;7.29;100.00
49341;BME280;35209;51.050;13.678;2023-04-15T22:17:14;99647.72;;;7.48;100.00
49341;BME280;35209;51.050;13.678;2023-04-15T22:22:16;99648.78;;;7.75;100.00
49341;BME280;35209;51.050;13.678;2023-04-15T22:27:20;99645.28;;;7.75;100.00
49341;BME280;35209;51.050;13.678;2023-04-15T22:32:21;99655.00;;;7.70;100.00
49341;BME280;35209;51.050;13.678;2023-04-15T22:37:23;99661.88;;;7.40;100.00
49341;BME280;35209;51.050;13.678;2023-04-15T22:42:25;99659.22;;;7.41;100.00
49341;BME280;35209;51.050;13.678;2023-04-15T22:47:27;99663.38;;;7.50;100.00
49341;BME280;35209;51.050;13.678;2023-04-15T22:52:28;99675.06;;;7.35;100.00
49341;BME280;35209;51.050;13.678;2023-04-15T22:57:31;99675.53;;;7.51;100.00
49341;BME280;35209;51.050;13.678;2023-04-15T23:02:33;99677.25;;;7.52;100.00
49341;BME280;35209;51.050;13.678;2023-04-15T23:07:35;99684.47;;;7.44;100.00
49341;BME280;35209;51.050;13.678;2023-04-15T23:12:37;99688.84;;;7.42;100.00
49341;BME280;35209;51.050;13.678;2023-04-15T23:17:40;99694.13;;;7.39;100.00
49341;BME280;35209;51.050;13.678;2023-04-15T23:22:42;99695.91;;;7.38;100.00
49341;BME280;35209;51.050;13.678;2023-04-15T23:27:44;99692.19;;;7.47;100.00
49341;BME280;35209;51.050;13.678;2023-04-15T23:32:46;99699.06;;;7.51;100.00
49341;BME280;35209;51.050;13.678;2023-04-15T23:37:48;99693.84;;;7.51;100.00
49341;BME280;35209;51.050;13.678;2023-04-15T23:42:49;99701.88;;;7.43;100.00
49341;BME280;35209;51.050;13.678;2023-04-15T23:47:52;99696.13;;;7.29;100.00
49341;BME280;35209;51.050;13.678;2023-04-15T23:52:53;99705.84;;;7.24;100.00
49341;BME280;35209;51.050;13.678;2023-04-15T23:57:55;99706.94;;;7.51;100.00
